sensor_id;sensor_type;location;lat;lon;timestamp;pressure;altitude;pressure_sealevel;temperature;humidity
71476;BME280;59286;59.274;17.974;2023-04-27T00:00:36;100196.53;;;1.71;77.87
71476;BME280;59286;59.274;17.974;2023-04-27T00:03:01;100215.22;;;1.83;78.39
71476;BME280;59286;59.274;17.974;2023-04-27T00:05:33;100214.97;;;1.85;78.55
71476;BME280;59286;59.274;17.974;2023-04-27T00:07:58;100192.81;;;1.62;79.32
71476;BME280;59286;59.274;17.974;2023-04-27T00:10:24;100190.53;;;1.66;79.51
71476;BME280;59286;59.274;17.974;2023-04-27T00:12:49;100202.72;;;1.70;79.96
71476;BME280;59286;59.274;17.974;2023-04-27T00:15:14;100221.34;;;1.77;79.92
71476;BME280;59286;59.274;17.974;2023-04-27T00:17:40;100211.78;;;1.73;79.94
71476;BME280;59286;59.274;17.974;2023-04-27T00:20:08;100208.31;;;1.62;81.00
71476;BME280;59286;59.274;17.974;2023-04-27T00:22:36;100186.78;;;1.52;80.88
71476;BME280;59286;59.274;17.974;2023-04-27T00:25:02;100216.88;;;1.68;80.91
71476;BME280;59286;59.274;17.974;2023-04-27T00:27:27;100218.69;;;1.67;81.36
71476;BME280;59286;59.274;17.974;2023-04-27T00:29:52;100201.84;;;1.60;81.26
71476;BME280;59286;59.274;17.974;2023-04-27T00:32:18;100213.25;;;1.64;81.68
71476;BME280;59286;59.274;17.974;2023-04-27T00:34:43;100213.97;;;1.59;81.75
71476;BME280;59286;59.274;17.974;2023-04-27T00:37:09;100220.47;;;1.62;82.01
71476;BME280;59286;59.274;17.974;2023-04-27T00:39:34;100223.28;;;1.60;81.75
71476;BME280;59286;59.274;17.974;2023-04-27T00:42:00;100201.66;;;1.40;82.26
71476;BME280;59286;59.274;17.974;2023-04-27T00:44:26;100221.47;;;1.61;82.25
71476;BME280;59286;59.274;17.974;2023-04-27T00:46:52;100206.13;;;1.49;82.26
71476;BME280;59286;59.274;17.974;2023-04-27T00:49:22;100224.88;;;1.66;82.09
71476;BME280;59286;59.274;17.974;2023-04-27T00:51:47;100216.00;;;1.57;82.79
71476;BME280;59286;59.274;17.974;2023-04-27T00:54:19;100227.22;;;1.68;82.15
71476;BME280;59286;59.274;17.974;2023-04-27T00:56:48;100219.25;;;1.69;82.13
71476;BME280;59286;59.274;17.974;2023-04-27T00:59:15;100202.81;;;1.54;82.04
71476;BME280;59286;59.274;17.974;2023-04-27T01:01:40;100209.84;;;1.58;82.58
71476;BME280;59286;59.274;17.974;2023-04-27T01:04:05;100225.66;;;1.67;82.70
71476;BME280;59286;59.274;17.974;2023-04-27T01:06:32;100207.47;;;1.57;83.08
71476;BME280;59286;59.274;17.974;2023-04-27T01:08:57;100219.72;;;1.66;82.95
71476;BME280;59286;59.274;17.974;2023-04-27T01:11:23;100217.09;;;1.61;83.33
71476;BME280;59286;59.274;17.974;2023-04-27T01:13:48;100203.84;;;1.53;83.52
71476;BME280;59286;59.274;17.974;2023-04-27T01:16:16;100225.88;;;1.60;83.80
71476;BME280;59286;59.274;17.974;2023-04-27T01:18:41;100204.03;;;1.46;83.80
71476;BME280;59286;59.274;17.974;2023-04-27T01:21:08;100224.00;;;1.56;84.15
71476;BME280;59286;59.274;17.974;2023-04-27T01:23:33;100190.97;;;1.31;84.06
71476;BME280;59286;59.274;17.974;2023-04-27T01:25:59;100217.44;;;1.43;84.59
71476;BME280;59286;59.274;17.974;2023-04-27T01:28:24;100222.91;;;1.47;84.36
71476;BME280;59286;59.274;17.974;2023-04-27T01:30:50;100223.44;;;1.49;84.35
71476;BME280;59286;59.274;17.974;2023-04-27T01:33:16;100224.69;;;1.46;84.04
71476;BME280;59286;59.274;17.974;2023-04-27T01:35:41;100215.25;;;1.30;84.77
71476;BME280;59286;59.274;17.974;2023-04-27T01:38:07;100212.69;;;1.35;84.89
71476;BME280;59286;59.274;17.974;2023-04-27T01:40:32;100215.78;;;1.32;85.10
71476;BME280;59286;59.274;17.974;2023-04-27T01:42:58;100218.38;;;1.32;85.04
71476;BME280;59286;59.274;17.974;2023-04-27T01:45:23;100236.97;;;1.34;85.10
71476;BME280;59286;59.274;17.974;2023-04-27T01:47:52;100213.88;;;1.23;84.49
71476;BME280;59286;59.274;17.974;2023-04-27T01:50:18;100221.38;;;1.24;85.27
71476;BME280;59286;59.274;17.974;2023-04-27T01:52:43;100241.06;;;1.30;85.69
71476;BME280;59286;59.274;17.974;2023-04-27T01:55:08;100237.69;;;1.30;85.62
71476;BME280;59286;59.274;17.974;2023-04-27T01:57:34;100215.06;;;1.15;85.32
71476;BME280;59286;59.274;17.974;2023-04-27T01:59:59;100226.00;;;1.22;85.50
71476;BME280;59286;59.274;17.974;2023-04-27T02:02:25;100225.50;;;1.25;85.06
71476;BME280;59286;59.274;17.974;2023-04-27T02:04:50;100236.19;;;1.34;85.05
71476;BME280;59286;59.274;17.974;2023-04-27T02:07:15;100230.47;;;1.32;84.87
71476;BME280;59286;59.274;17.974;2023-04-27T02:09:41;100230.47;;;1.32;85.05
71476;BME280;59286;59.274;17.974;2023-04-27T02:12:06;100244.19;;;1.32;84.76
71476;BME280;59286;59.274;17.974;2023-04-27T02:14:31;100239.72;;;1.28;84.60
71476;BME280;59286;59.274;17.974;2023-04-27T02:16:57;100236.59;;;1.26;85.08
71476;BME280;59286;59.274;17.974;2023-04-27T02:19:22;100237.41;;;1.26;84.86
71476;BME280;59286;59.274;17.974;2023-04-27T02:21:47;100214.25;;;1.10;84.87
71476;BME280;59286;59.274;17.974;2023-04-27T02:24:13;100223.59;;;1.16;85.46
71476;BME280;59286;59.274;17.974;2023-04-27T02:26:38;100227.97;;;1.15;85.54
71476;BME280;59286;59.274;17.974;2023-04-27T02:29:03;100212.06;;;1.02;85.56
71476;BME280;59286;59.274;17.974;2023-04-27T02:31:28;100211.28;;;1.01;85.57
71476;BME280;59286;59.274;17.974;2023-04-27T02:33:54;100231.50;;;1.09;86.08
71476;BME280;59286;59.274;17.974;2023-04-27T02:36:20;100233.56;;;1.07;85.83
71476;BME280;59286;59.274;17.974;2023-04-27T02:38:45;100244.41;;;1.09;85.72
71476;BME280;59286;59.274;17.974;2023-04-27T02:41:11;100236.91;;;1.08;85.68
71476;BME280;59286;59.274;17.974;2023-04-27T02:43:36;100233.59;;;1.12;85.48
71476;BME280;59286;59.274;17.974;2023-04-27T02:46:02;100230.91;;;1.02;85.69
71476;BME280;59286;59.274;17.974;2023-04-27T02:48:29;100247.53;;;1.11;85.43
71476;BME280;59286;59.274;17.974;2023-04-27T02:50:54;100242.53;;;1.05;85.52
71476;BME280;59286;59.274;17.974;2023-04-27T02:53:20;100244.38;;;1.04;85.41
71476;BME280;59286;59.274;17.974;2023-04-27T02:55:45;100246.94;;;1.04;85.24
71476;BME280;59286;59.274;17.974;2023-04-27T02:58:12;100229.16;;;0.86;85.66
71476;BME280;59286;59.274;17.974;2023-04-27T03:00:37;100248.91;;;0.97;85.42
71476;BME280;59286;59.274;17.974;2023-04-27T03:03:05;100232.94;;;0.78;85.61
71476;BME280;59286;59.274;17.974;2023-04-27T03:05:30;100254.56;;;0.94;85.57
71476;BME280;59286;59.274;17.974;2023-04-27T03:07:56;100257.38;;;0.92;86.04
71476;BME280;59286;59.274;17.974;2023-04-27T03:10:21;100245.25;;;0.93;85.75
71476;BME280;59286;59.274;17.974;2023-04-27T03:12:46;100249.34;;;0.89;86.05
71476;BME280;59286;59.274;17.974;2023-04-27T03:15:12;100255.03;;;0.91;86.15
71476;BME280;59286;59.274;17.974;2023-04-27T03:17:37;100242.91;;;0.91;86.06
71476;BME280;59286;59.274;17.974;2023-04-27T03:20:03;100254.59;;;0.99;85.67
71476;BME280;59286;59.274;17.974;2023-04-27T03:22:32;100262.69;;;1.03;85.93
71476;BME280;59286;59.274;17.974;2023-04-27T03:24:58;100255.41;;;0.99;85.50
71476;BME280;59286;59.274;17.974;2023-04-27T03:27:23;100259.75;;;0.99;86.29
71476;BME280;59286;59.274;17.974;2023-04-27T03:29:50;100262.44;;;1.04;86.12
71476;BME280;59286;59.274;17.974;2023-04-27T03:32:17;100263.97;;;1.05;85.49
71476;BME280;59286;59.274;17.974;2023-04-27T03:34:43;100258.56;;;1.07;85.59
71476;BME280;59286;59.274;17.974;2023-04-27T03:37:08;100257.28;;;1.04;85.67
71476;BME280;59286;59.274;17.974;2023-04-27T03:39:33;100263.03;;;1.11;85.69
71476;BME280;59286;59.274;17.974;2023-04-27T03:41:59;100273.47;;;1.21;85.70
71476;BME280;59286;59.274;17.974;2023-04-27T03:44:24;100277.59;;;1.22;85.13
71476;BME280;59286;59.274;17.974;2023-04-27T03:46:49;100272.41;;;1.17;85.17
71476;BME280;59286;59.274;17.974;2023-04-27T03:49:15;100253.19;;;1.08;85.32
71476;BME280;59286;59.274;17.974;2023-04-27T03:51:40;100272.44;;;1.22;85.16
71476;BME280;59286;59.274;17.974;2023-04-27T03:54:06;100261.03;;;1.18;84.84
71476;BME280;59286;59.274;17.974;2023-04-27T03:56:32;100240.50;;;1.07;84.71
71476;BME280;59286;59.274;17.974;2023-04-27T03:58:57;100278.56;;;1.38;84.92
71476;BME280;59286;59.274;17.974;2023-04-27T04:01:23;100278.38;;;1.44;84.36
71476;BME280;59286;59.274;17.974;2023-04-27T04:03:49;100285.69;;;1.52;84.18
71476;BME280;59286;59.274;17.974;2023-04-27T04:06:15;100278.50;;;1.54;83.86
71476;BME280;59286;59.274;17.974;2023-04-27T04:08:41;100290.78;;;1.69;83.54
71476;BME280;59286;59.274;17.974;2023-04-27T04:11:06;100291.34;;;1.76;83.31
71476;BME280;59286;59.274;17.974;2023-04-27T04:13:31;100297.09;;;1.83;83.42
71476;BME280;59286;59.274;17.974;2023-04-27T04:16:07;100286.31;;;1.86;82.66
71476;BME280;59286;59.274;17.974;2023-04-27T04:18:34;100272.88;;;1.89;82.37
71476;BME280;59286;59.274;17.974;2023-04-27T04:20:59;100289.09;;;2.11;81.91
71476;BME280;59286;59.274;17.974;2023-04-27T04:23:25;100281.69;;;2.20;81.02
71476;BME280;59286;59.274;17.974;2023-04-27T04:25:52;100295.75;;;2.34;81.12
71476;BME280;59286;59.274;17.974;2023-04-27T04:28:18;100297.38;;;2.45;80.34
71476;BME280;59286;59.274;17.974;2023-04-27T04:30:43;100291.03;;;2.57;79.47
71476;BME280;59286;59.274;17.974;2023-04-27T04:33:09;100293.19;;;2.75;79.07
71476;BME280;59286;59.274;17.974;2023-04-27T04:35:38;100298.50;;;3.01;78.55
71476;BME280;59286;59.274;17.974;2023-04-27T04:38:04;100287.94;;;3.07;78.22
71476;BME280;59286;59.274;17.974;2023-04-27T04:40:30;100287.75;;;3.29;77.46
71476;BME280;59286;59.274;17.974;2023-04-27T04:42:55;100275.88;;;3.33;76.20
71476;BME280;59286;59.274;17.974;2023-04-27T04:45:21;100266.03;;;3.40;75.79
71476;BME280;59286;59.274;17.974;2023-04-27T04:47:48;100298.78;;;3.76;75.41
71476;BME280;59286;59.274;17.974;2023-04-27T04:50:13;100306.84;;;3.89;74.83
71476;BME280;59286;59.274;17.974;2023-04-27T04:52:38;100302.19;;;4.07;74.73
71476;BME280;59286;59.274;17.974;2023-04-27T04:55:04;100312.06;;;4.30;73.74
71476;BME280;59286;59.274;17.974;2023-04-27T04:57:30;100293.91;;;4.40;73.33
71476;BME280;59286;59.274;17.974;2023-04-27T04:59:56;100318.78;;;4.61;71.20
71476;BME280;59286;59.274;17.974;2023-04-27T05:02:21;100314.63;;;4.80;71.45
71476;BME280;59286;59.274;17.974;2023-04-27T05:04:47;100309.91;;;4.97;70.47
71476;BME280;59286;59.274;17.974;2023-04-27T05:07:13;100302.59;;;5.09;69.74
71476;BME280;59286;59.274;17.974;2023-04-27T05:09:38;100314.44;;;5.35;70.60
71476;BME280;59286;59.274;17.974;2023-04-27T05:12:04;100311.78;;;5.55;69.69
71476;BME280;59286;59.274;17.974;2023-04-27T05:14:29;100299.53;;;5.56;70.22
71476;BME280;59286;59.274;17.974;2023-04-27T05:16:55;100319.19;;;5.77;68.83
71476;BME280;59286;59.274;17.974;2023-04-27T05:19:20;100308.59;;;5.68;66.81
71476;BME280;59286;59.274;17.974;2023-04-27T05:21:46;100317.59;;;5.91;67.02
71476;BME280;59286;59.274;17.974;2023-04-27T05:24:11;100322.47;;;5.98;66.67
71476;BME280;59286;59.274;17.974;2023-04-27T05:26:37;100316.72;;;6.06;66.10
71476;BME280;59286;59.274;17.974;2023-04-27T05:29:03;100292.78;;;6.04;66.50
71476;BME280;59286;59.274;17.974;2023-04-27T05:31:28;100308.91;;;6.06;65.20
71476;BME280;59286;59.274;17.974;2023-04-27T05:33:53;100291.31;;;5.87;64.90
71476;BME280;59286;59.274;17.974;2023-04-27T05:36:19;100293.34;;;5.96;65.02
71476;BME280;59286;59.274;17.974;2023-04-27T05:38:44;100315.53;;;6.22;66.16
71476;BME280;59286;59.274;17.974;2023-04-27T05:41:10;100320.19;;;6.25;64.75
71476;BME280;59286;59.274;17.974;2023-04-27T05:43:35;100306.09;;;6.36;64.65
71476;BME280;59286;59.274;17.974;2023-04-27T05:46:03;100308.53;;;6.51;63.11
71476;BME280;59286;59.274;17.974;2023-04-27T05:48:28;100290.19;;;6.37;63.89
71476;BME280;59286;59.274;17.974;2023-04-27T05:51:01;100313.06;;;6.40;62.55
71476;BME280;59286;59.274;17.974;2023-04-27T05:53:27;100321.91;;;6.73;64.03
71476;BME280;59286;59.274;17.974;2023-04-27T05:55:52;100321.97;;;6.92;62.30
71476;BME280;59286;59.274;17.974;2023-04-27T05:58:17;100306.13;;;6.88;61.46
71476;BME280;59286;59.274;17.974;2023-04-27T06:00:43;100294.78;;;6.74;60.94
71476;BME280;59286;59.274;17.974;2023-04-27T06:03:08;100318.78;;;7.18;62.54
71476;BME280;59286;59.274;17.974;2023-04-27T06:05:33;100298.44;;;7.20;60.26
71476;BME280;59286;59.274;17.974;2023-04-27T06:07:59;100309.75;;;7.34;61.40
71476;BME280;59286;59.274;17.974;2023-04-27T06:10:24;100315.72;;;7.58;59.68
71476;BME280;59286;59.274;17.974;2023-04-27T06:12:50;100322.16;;;7.42;59.32
71476;BME280;59286;59.274;17.974;2023-04-27T06:15:15;100327.38;;;7.42;60.24
71476;BME280;59286;59.274;17.974;2023-04-27T06:17:41;100328.50;;;7.36;59.56
71476;BME280;59286;59.274;17.974;2023-04-27T06:20:08;100324.94;;;7.51;59.72
71476;BME280;59286;59.274;17.974;2023-04-27T06:22:34;100333.59;;;7.46;57.98
71476;BME280;59286;59.274;17.974;2023-04-27T06:25:01;100330.16;;;7.51;58.33
71476;BME280;59286;59.274;17.974;2023-04-27T06:27:27;100326.97;;;7.72;58.67
71476;BME280;59286;59.274;17.974;2023-04-27T06:29:52;100338.63;;;7.80;57.16
71476;BME280;59286;59.274;17.974;2023-04-27T06:32:17;100324.59;;;7.95;57.49
71476;BME280;59286;59.274;17.974;2023-04-27T06:34:43;100325.75;;;8.21;57.78
71476;BME280;59286;59.274;17.974;2023-04-27T06:37:08;100338.41;;;8.32;57.33
71476;BME280;59286;59.274;17.974;2023-04-27T06:39:34;100336.00;;;8.36;55.91
71476;BME280;59286;59.274;17.974;2023-04-27T06:41:59;100328.25;;;8.31;55.98
71476;BME280;59286;59.274;17.974;2023-04-27T06:44:24;100330.72;;;8.22;55.88
71476;BME280;59286;59.274;17.974;2023-04-27T06:46:50;100342.59;;;8.33;54.77
71476;BME280;59286;59.274;17.974;2023-04-27T06:49:15;100331.19;;;8.43;53.59
71476;BME280;59286;59.274;17.974;2023-04-27T06:51:41;100330.84;;;8.49;53.58
71476;BME280;59286;59.274;17.974;2023-04-27T06:54:06;100337.13;;;8.48;54.39
71476;BME280;59286;59.274;17.974;2023-04-27T06:56:31;100338.25;;;8.88;55.75
71476;BME280;59286;59.274;17.974;2023-04-27T06:58:57;100339.84;;;9.30;55.06
71476;BME280;59286;59.274;17.974;2023-04-27T07:01:22;100328.38;;;9.53;56.16
71476;BME280;59286;59.274;17.974;2023-04-27T07:03:47;100326.16;;;9.46;51.49
71476;BME280;59286;59.274;17.974;2023-04-27T07:06:13;100345.16;;;9.38;51.64
71476;BME280;59286;59.274;17.974;2023-04-27T07:08:39;100345.44;;;9.23;51.74
71476;BME280;59286;59.274;17.974;2023-04-27T07:11:04;100340.22;;;9.23;52.33
71476;BME280;59286;59.274;17.974;2023-04-27T07:13:30;100334.41;;;9.26;52.11
71476;BME280;59286;59.274;17.974;2023-04-27T07:15:55;100335.94;;;9.27;52.09
71476;BME280;59286;59.274;17.974;2023-04-27T07:18:25;100345.03;;;9.57;54.25
71476;BME280;59286;59.274;17.974;2023-04-27T07:20:52;100344.63;;;9.77;53.53
71476;BME280;59286;59.274;17.974;2023-04-27T07:23:17;100345.56;;;9.45;51.48
71476;BME280;59286;59.274;17.974;2023-04-27T07:25:43;100338.19;;;9.83;53.72
71476;BME280;59286;59.274;17.974;2023-04-27T07:28:09;100343.53;;;9.92;52.43
71476;BME280;59286;59.274;17.974;2023-04-27T07:30:35;100332.25;;;9.91;51.90
71476;BME280;59286;59.274;17.974;2023-04-27T07:33:01;100350.84;;;9.27;50.21
71476;BME280;59286;59.274;17.974;2023-04-27T07:35:26;100344.00;;;9.17;52.29
71476;BME280;59286;59.274;17.974;2023-04-27T07:37:52;100352.13;;;9.29;50.81
71476;BME280;59286;59.274;17.974;2023-04-27T07:40:20;100336.25;;;9.39;53.80
71476;BME280;59286;59.274;17.974;2023-04-27T07:42:46;100342.22;;;9.67;50.05
71476;BME280;59286;59.274;17.974;2023-04-27T07:45:11;100352.78;;;9.98;51.31
71476;BME280;59286;59.274;17.974;2023-04-27T07:47:37;100344.00;;;9.94;50.26
71476;BME280;59286;59.274;17.974;2023-04-27T07:50:04;100351.53;;;9.59;49.64
71476;BME280;59286;59.274;17.974;2023-04-27T07:52:30;100348.19;;;9.81;48.30
71476;BME280;59286;59.274;17.974;2023-04-27T07:54:55;100350.94;;;9.98;48.76
71476;BME280;59286;59.274;17.974;2023-04-27T07:57:21;100361.13;;;9.64;49.69
71476;BME280;59286;59.274;17.974;2023-04-27T07:59:46;100354.81;;;8.97;49.15
71476;BME280;59286;59.274;17.974;2023-04-27T08:02:12;100372.88;;;8.66;48.44
71476;BME280;59286;59.274;17.974;2023-04-27T08:04:37;100371.69;;;8.59;49.82
71476;BME280;59286;59.274;17.974;2023-04-27T08:07:02;100368.25;;;8.26;49.98
71476;BME280;59286;59.274;17.974;2023-04-27T08:09:27;100368.31;;;8.40;50.62
71476;BME280;59286;59.274;17.974;2023-04-27T08:11:53;100369.69;;;8.69;49.37
71476;BME280;59286;59.274;17.974;2023-04-27T08:14:18;100371.16;;;8.75;49.05
71476;BME280;59286;59.274;17.974;2023-04-27T08:16:43;100382.78;;;8.83;49.70
71476;BME280;59286;59.274;17.974;2023-04-27T08:19:09;100377.22;;;9.17;50.47
71476;BME280;59286;59.274;17.974;2023-04-27T08:21:36;100363.63;;;9.01;48.91
71476;BME280;59286;59.274;17.974;2023-04-27T08:24:02;100377.78;;;9.00;49.62
71476;BME280;59286;59.274;17.974;2023-04-27T08:26:27;100379.09;;;8.70;48.39
71476;BME280;59286;59.274;17.974;2023-04-27T08:28:53;100379.63;;;8.54;49.62
71476;BME280;59286;59.274;17.974;2023-04-27T08:31:20;100387.88;;;8.42;49.33
71476;BME280;59286;59.274;17.974;2023-04-27T08:33:46;100383.50;;;8.19;49.12
71476;BME280;59286;59.274;17.974;2023-04-27T08:36:11;100373.41;;;8.13;50.89
71476;BME280;59286;59.274;17.974;2023-04-27T08:38:36;100373.13;;;7.96;50.14
71476;BME280;59286;59.274;17.974;2023-04-27T08:41:02;100375.53;;;8.11;50.47
71476;BME280;59286;59.274;17.974;2023-04-27T08:43:34;100388.13;;;8.27;51.44
71476;BME280;59286;59.274;17.974;2023-04-27T08:46:02;100378.06;;;8.16;49.87
71476;BME280;59286;59.274;17.974;2023-04-27T08:48:28;100372.22;;;8.05;50.48
71476;BME280;59286;59.274;17.974;2023-04-27T08:50:55;100389.16;;;8.26;50.76
71476;BME280;59286;59.274;17.974;2023-04-27T08:53:21;100374.75;;;8.10;50.70
71476;BME280;59286;59.274;17.974;2023-04-27T08:55:48;100376.06;;;8.08;50.25
71476;BME280;59286;59.274;17.974;2023-04-27T08:58:14;100383.47;;;7.82;51.02
71476;BME280;59286;59.274;17.974;2023-04-27T09:00:40;100398.50;;;7.71;50.54
71476;BME280;59286;59.274;17.974;2023-04-27T09:03:28;100389.13;;;8.08;51.32
71476;BME280;59286;59.274;17.974;2023-04-27T09:05:52;100393.78;;;8.66;50.97
71476;BME280;59286;59.274;17.974;2023-04-27T09:08:18;100383.13;;;8.76;49.98
71476;BME280;59286;59.274;17.974;2023-04-27T09:13:10;100402.13;;;8.82;51.01
71476;BME280;59286;59.274;17.974;2023-04-27T09:15:43;100399.50;;;8.82;49.68
71476;BME280;59286;59.274;17.974;2023-04-27T09:18:14;100399.97;;;8.70;49.50
71476;BME280;59286;59.274;17.974;2023-04-27T09:20:51;100389.84;;;8.50;46.66
71476;BME280;59286;59.274;17.974;2023-04-27T09:25:56;100404.06;;;8.26;46.57
71476;BME280;59286;59.274;17.974;2023-04-27T09:28:24;100409.31;;;8.21;49.71
71476;BME280;59286;59.274;17.974;2023-04-27T09:30:51;100407.59;;;8.35;50.55
71476;BME280;59286;59.274;17.974;2023-04-27T09:33:25;100408.63;;;8.34;50.30
71476;BME280;59286;59.274;17.974;2023-04-27T09:35:51;100405.16;;;8.57;53.38
71476;BME280;59286;59.274;17.974;2023-04-27T09:38:20;100392.66;;;8.86;50.66
71476;BME280;59286;59.274;17.974;2023-04-27T09:40:47;100394.75;;;9.16;49.51
71476;BME280;59286;59.274;17.974;2023-04-27T09:43:13;100405.31;;;9.38;50.58
71476;BME280;59286;59.274;17.974;2023-04-27T09:45:38;100397.16;;;9.53;48.58
71476;BME280;59286;59.274;17.974;2023-04-27T09:48:05;100392.44;;;9.55;48.31
71476;BME280;59286;59.274;17.974;2023-04-27T09:50:34;100389.81;;;9.55;46.32
71476;BME280;59286;59.274;17.974;2023-04-27T09:53:00;100397.09;;;9.45;47.76
71476;BME280;59286;59.274;17.974;2023-04-27T09:55:30;100398.91;;;9.44;46.99
71476;BME280;59286;59.274;17.974;2023-04-27T09:58:18;100392.63;;;9.45;45.74
71476;BME280;59286;59.274;17.974;2023-04-27T10:09:14;100405.47;;;10.10;47.86
71476;BME280;59286;59.274;17.974;2023-04-27T10:11:42;100419.53;;;9.87;48.27
71476;BME280;59286;59.274;17.974;2023-04-27T10:14:10;100416.03;;;9.91;51.04
71476;BME280;59286;59.274;17.974;2023-04-27T10:16:45;100418.47;;;9.88;49.96
71476;BME280;59286;59.274;17.974;2023-04-27T10:19:11;100417.88;;;10.18;46.69
71476;BME280;59286;59.274;17.974;2023-04-27T10:21:59;100420.88;;;10.47;50.19
71476;BME280;59286;59.274;17.974;2023-04-27T10:24:39;100409.41;;;10.65;47.79
71476;BME280;59286;59.274;17.974;2023-04-27T10:27:10;100407.75;;;10.69;48.42
71476;BME280;59286;59.274;17.974;2023-04-27T10:29:42;100423.72;;;10.81;47.72
71476;BME280;59286;59.274;17.974;2023-04-27T10:32:10;100422.06;;;10.85;49.69
71476;BME280;59286;59.274;17.974;2023-04-27T10:34:36;100414.91;;;10.77;48.55
71476;BME280;59286;59.274;17.974;2023-04-27T10:37:09;100425.63;;;10.45;47.50
71476;BME280;59286;59.274;17.974;2023-04-27T10:39:39;100426.78;;;10.17;51.02
71476;BME280;59286;59.274;17.974;2023-04-27T10:42:05;100448.63;;;9.99;49.22
71476;BME280;59286;59.274;17.974;2023-04-27T10:44:32;100437.50;;;9.52;52.02
71476;BME280;59286;59.274;17.974;2023-04-27T10:47:18;100469.44;;;9.22;54.93
71476;BME280;59286;59.274;17.974;2023-04-27T10:49:44;100478.38;;;8.70;56.30
71476;BME280;59286;59.274;17.974;2023-04-27T10:52:10;100476.94;;;8.22;61.96
71476;BME280;59286;59.274;17.974;2023-04-27T10:54:35;100465.72;;;7.98;64.73
71476;BME280;59286;59.274;17.974;2023-04-27T10:57:11;100459.94;;;7.82;63.94
71476;BME280;59286;59.274;17.974;2023-04-27T10:59:49;100467.31;;;7.75;61.77
71476;BME280;59286;59.274;17.974;2023-04-27T11:02:14;100459.03;;;7.68;64.26
71476;BME280;59286;59.274;17.974;2023-04-27T11:04:40;100456.09;;;7.51;60.57
71476;BME280;59286;59.274;17.974;2023-04-27T11:07:06;100452.03;;;7.40;60.86
71476;BME280;59286;59.274;17.974;2023-04-27T11:09:41;100457.25;;;7.40;61.92
71476;BME280;59286;59.274;17.974;2023-04-27T11:12:11;100458.25;;;7.44;59.96
71476;BME280;59286;59.274;17.974;2023-04-27T11:14:36;100463.84;;;7.33;60.88
71476;BME280;59286;59.274;17.974;2023-04-27T11:17:03;100455.53;;;7.31;59.57
71476;BME280;59286;59.274;17.974;2023-04-27T11:19:30;100456.69;;;7.43;60.45
71476;BME280;59286;59.274;17.974;2023-04-27T11:22:05;100471.56;;;7.66;60.53
71476;BME280;59286;59.274;17.974;2023-04-27T11:24:31;100483.63;;;7.62;59.63
71476;BME280;59286;59.274;17.974;2023-04-27T11:26:57;100475.50;;;7.40;61.12
71476;BME280;59286;59.274;17.974;2023-04-27T11:29:23;100485.91;;;7.40;61.61
71476;BME280;59286;59.274;17.974;2023-04-27T11:31:49;100507.56;;;7.41;63.00
71476;BME280;59286;59.274;17.974;2023-04-27T11:34:20;100513.47;;;7.23;61.66
71476;BME280;59286;59.274;17.974;2023-04-27T11:37:20;100520.72;;;6.92;60.29
71476;BME280;59286;59.274;17.974;2023-04-27T11:39:45;100514.25;;;6.84;62.49
71476;BME280;59286;59.274;17.974;2023-04-27T11:42:19;100512.41;;;6.90;58.92
71476;BME280;59286;59.274;17.974;2023-04-27T11:44:57;100499.97;;;6.82;61.48
71476;BME280;59286;59.274;17.974;2023-04-27T11:47:24;100511.22;;;7.11;61.25
71476;BME280;59286;59.274;17.974;2023-04-27T11:49:54;100496.47;;;7.30;64.30
71476;BME280;59286;59.274;17.974;2023-04-27T11:52:21;100496.53;;;7.49;58.26
71476;BME280;59286;59.274;17.974;2023-04-27T11:54:51;100505.09;;;7.54;59.52
71476;BME280;59286;59.274;17.974;2023-04-27T11:57:22;100522.91;;;7.71;59.28
71476;BME280;59286;59.274;17.974;2023-04-27T11:59:49;100500.34;;;7.33;61.30
71476;BME280;59286;59.274;17.974;2023-04-27T12:02:14;100542.81;;;7.33;61.60
71476;BME280;59286;59.274;17.974;2023-04-27T12:04:39;100547.38;;;6.84;63.33
71476;BME280;59286;59.274;17.974;2023-04-27T12:07:05;100537.75;;;6.31;68.62
71476;BME280;59286;59.274;17.974;2023-04-27T12:09:30;100539.19;;;5.98;72.74
71476;BME280;59286;59.274;17.974;2023-04-27T12:11:56;100555.97;;;6.31;76.71
71476;BME280;59286;59.274;17.974;2023-04-27T12:14:21;100546.47;;;6.55;77.20
71476;BME280;59286;59.274;17.974;2023-04-27T12:16:47;100550.66;;;6.51;76.92
71476;BME280;59286;59.274;17.974;2023-04-27T12:19:12;100538.16;;;6.53;78.42
71476;BME280;59286;59.274;17.974;2023-04-27T12:21:37;100514.78;;;6.43;74.92
71476;BME280;59286;59.274;17.974;2023-04-27T12:24:03;100525.88;;;6.63;74.57
71476;BME280;59286;59.274;17.974;2023-04-27T12:26:28;100512.22;;;6.33;73.40
71476;BME280;59286;59.274;17.974;2023-04-27T12:28:53;100527.63;;;6.24;73.77
71476;BME280;59286;59.274;17.974;2023-04-27T12:31:19;100530.50;;;6.18;72.51
71476;BME280;59286;59.274;17.974;2023-04-27T12:33:48;100534.81;;;6.47;74.49
71476;BME280;59286;59.274;17.974;2023-04-27T12:36:15;100534.94;;;6.71;75.17
71476;BME280;59286;59.274;17.974;2023-04-27T12:38:41;100554.91;;;7.24;75.25
71476;BME280;59286;59.274;17.974;2023-04-27T12:41:06;100544.94;;;7.31;66.80
71476;BME280;59286;59.274;17.974;2023-04-27T12:43:31;100540.50;;;7.32;70.14
71476;BME280;59286;59.274;17.974;2023-04-27T12:45:57;100546.66;;;7.12;69.93
71476;BME280;59286;59.274;17.974;2023-04-27T12:48:22;100537.94;;;7.27;69.26
71476;BME280;59286;59.274;17.974;2023-04-27T12:50:47;100542.03;;;7.38;69.12
71476;BME280;59286;59.274;17.974;2023-04-27T12:53:13;100544.44;;;7.58;69.13
71476;BME280;59286;59.274;17.974;2023-04-27T12:55:38;100541.47;;;7.69;67.18
71476;BME280;59286;59.274;17.974;2023-04-27T12:58:03;100551.75;;;7.84;66.37
71476;BME280;59286;59.274;17.974;2023-04-27T13:00:29;100556.75;;;7.81;65.34